createdAt,value
2018-10-05T00:00:58.191Z,0.00
2018-10-05T00:01:58.063Z,0.00
2018-10-05T00:02:57.935Z,0.00
2018-10-05T00:03:57.807Z,0.00
2018-10-05T00:04:57.685Z,0.00
2018-10-05T00:05:57.557Z,0.00
2018-10-05T00:06:57.429Z,0.00
2018-10-05T00:07:57.303Z,0.00
2018-10-05T00:08:57.176Z,0.00
2018-10-05T00:09:57.050Z,0.00
2018-10-05T00:10:56.923Z,0.00
2018-10-05T00:11:56.795Z,0.00
2018-10-05T00:12:56.682Z,0.00
2018-10-05T00:13:56.543Z,0.00
2018-10-05T00:14:56.415Z,0.00
2018-10-05T00:15:56.295Z,0.00
2018-10-05T00:16:56.165Z,0.00
2018-10-05T00:17:56.045Z,0.00
2018-10-05T00:18:55.907Z,0.00
2018-10-05T00:19:55.783Z,0.00
2018-10-05T00:20:55.657Z,0.00
2018-10-05T00:21:55.529Z,0.00
2018-10-05T00:22:55.400Z,0.00
2018-10-05T00:23:55.276Z,0.00
2018-10-05T00:24:55.148Z,0.00
2018-10-05T00:25:55.023Z,0.00
2018-10-05T00:26:54.896Z,0.00
2018-10-05T00:27:54.770Z,0.00
2018-10-05T00:28:54.643Z,0.00
2018-10-05T00:29:54.516Z,0.00
2018-10-05T00:30:54.392Z,0.00
2018-10-05T00:31:54.268Z,0.00
2018-10-05T00:32:54.137Z,0.00
2018-10-05T00:33:54.007Z,0.00
2018-10-05T00:34:53.883Z,0.00
2018-10-05T00:35:53.756Z,0.00
2018-10-05T00:36:53.633Z,0.00
2018-10-05T00:37:53.504Z,0.00
2018-10-05T00:38:53.375Z,0.00
2018-10-05T00:39:53.249Z,0.00
2018-10-05T00:40:53.121Z,0.00
2018-10-05T00:41:52.994Z,0.00
2018-10-05T00:42:52.868Z,0.00
2018-10-05T00:43:52.740Z,0.00
2018-10-05T00:44:52.630Z,0.00
2018-10-05T00:45:52.486Z,0.00
2018-10-05T00:46:52.362Z,0.00
2018-10-05T00:47:52.236Z,0.00
2018-10-05T00:48:52.113Z,0.00
2018-10-05T00:49:51.984Z,0.00
2018-10-05T00:50:51.854Z,0.00
2018-10-05T00:51:51.729Z,0.00
2018-10-05T00:52:51.617Z,0.00
2018-10-05T00:53:51.474Z,0.00
2018-10-05T00:54:51.348Z,0.00
2018-10-05T00:55:51.219Z,0.00
2018-10-05T00:56:51.095Z,0.00
2018-10-05T00:57:50.967Z,0.00
2018-10-05T00:58:50.841Z,0.00
2018-10-05T00:59:50.715Z,0.00
2018-10-05T01:00:50.591Z,0.00
2018-10-05T01:01:50.523Z,0.00
2018-10-05T01:02:50.336Z,0.00
2018-10-05T01:03:50.211Z,0.00
2018-10-05T01:04:50.082Z,0.00
2018-10-05T01:05:49.956Z,0.00
2018-10-05T01:06:49.827Z,0.00
2018-10-05T01:07:49.701Z,0.00
2018-10-05T01:08:49.578Z,0.00
2018-10-05T01:09:49.448Z,0.00
2018-10-05T01:10:49.368Z,0.00
2018-10-05T01:11:49.195Z,0.00
2018-10-05T01:12:49.068Z,0.00
2018-10-05T01:13:48.942Z,0.00
2018-10-05T01:14:48.815Z,0.00
2018-10-05T01:15:48.690Z,0.00
2018-10-05T01:16:48.561Z,0.00
2018-10-05T01:17:48.432Z,0.00
2018-10-05T01:18:48.312Z,0.00
2018-10-05T01:19:48.180Z,0.00
2018-10-05T01:20:48.075Z,0.00
2018-10-05T01:21:47.925Z,0.00
2018-10-05T01:22:47.802Z,0.00
2018-10-05T01:23:47.674Z,0.00
2018-10-05T01:24:47.603Z,0.00
2018-10-05T01:25:47.418Z,0.00
2018-10-05T01:26:47.296Z,0.00
2018-10-05T01:27:47.167Z,0.00
2018-10-05T01:28:47.041Z,0.00
2018-10-05T01:29:46.914Z,0.00
2018-10-05T01:30:46.784Z,0.00
2018-10-05T01:31:46.660Z,0.00
2018-10-05T01:32:46.534Z,0.00
2018-10-05T01:33:46.406Z,0.00
2018-10-05T01:34:46.281Z,0.00
2018-10-05T01:35:46.152Z,0.00
2018-10-05T01:36:46.026Z,0.00
2018-10-05T01:37:45.898Z,0.00
2018-10-05T01:38:45.846Z,0.00
2018-10-05T01:39:45.646Z,0.00
2018-10-05T01:40:45.519Z,0.00
2018-10-05T01:41:45.399Z,0.00
2018-10-05T01:42:45.265Z,0.00
2018-10-05T01:43:45.141Z,0.00
2018-10-05T01:44:45.011Z,0.00
2018-10-05T01:45:44.890Z,0.00
2018-10-05T01:46:44.759Z,0.00
2018-10-05T01:47:44.634Z,0.00
2018-10-05T01:48:44.504Z,0.00
2018-10-05T01:49:44.378Z,0.00
2018-10-05T01:50:44.251Z,0.00
2018-10-05T01:51:44.124Z,0.00
2018-10-05T01:52:43.997Z,0.00
2018-10-05T01:53:43.869Z,0.00
2018-10-05T01:54:43.743Z,0.00
2018-10-05T01:55:43.618Z,0.00
2018-10-05T01:56:43.493Z,0.00
2018-10-05T01:57:43.364Z,0.00
2018-10-05T01:58:43.235Z,0.00
2018-10-05T01:59:43.109Z,0.00
2018-10-05T02:00:42.983Z,0.00
2018-10-05T02:01:42.878Z,0.00
2018-10-05T02:02:42.791Z,0.00
2018-10-05T02:03:42.602Z,0.00
2018-10-05T02:04:42.476Z,0.00
2018-10-05T02:05:42.353Z,0.00
2018-10-05T02:06:42.225Z,0.00
2018-10-05T02:07:42.097Z,0.00
2018-10-05T02:08:41.969Z,0.00
2018-10-05T02:09:41.844Z,0.00
2018-10-05T02:10:41.715Z,0.00
2018-10-05T02:11:41.590Z,0.00
2018-10-05T02:12:41.463Z,0.00
2018-10-05T02:13:41.333Z,0.00
2018-10-05T02:14:41.208Z,0.00
2018-10-05T02:15:41.083Z,0.00
2018-10-05T02:16:40.954Z,0.00
2018-10-05T02:17:40.827Z,0.00
2018-10-05T02:18:40.700Z,0.00
2018-10-05T02:19:40.573Z,0.00
2018-10-05T02:20:40.448Z,0.00
2018-10-05T02:21:40.320Z,0.00
2018-10-05T02:22:40.192Z,0.00
2018-10-05T02:23:40.072Z,0.00
2018-10-05T02:24:39.954Z,0.00
2018-10-05T02:25:39.813Z,0.00
2018-10-05T02:26:39.691Z,0.00
2018-10-05T02:27:39.632Z,0.00
2018-10-05T02:28:39.433Z,0.00
2018-10-05T02:29:39.307Z,0.00
2018-10-05T02:30:39.177Z,0.00
2018-10-05T02:31:39.054Z,0.00
2018-10-05T02:32:38.925Z,0.00
2018-10-05T02:33:38.802Z,0.00
2018-10-05T02:34:38.670Z,0.00
2018-10-05T02:35:38.545Z,0.00
2018-10-05T02:36:38.418Z,0.00
2018-10-05T02:37:38.292Z,0.00
2018-10-05T02:38:38.165Z,0.00
2018-10-05T02:39:38.038Z,0.00
2018-10-05T02:40:37.911Z,0.00
2018-10-05T02:41:37.839Z,0.00
2018-10-05T02:42:37.657Z,0.00
2018-10-05T02:43:37.530Z,0.00
2018-10-05T02:44:37.404Z,0.00
2018-10-05T02:45:37.276Z,0.00
2018-10-05T02:46:37.149Z,0.00
2018-10-05T02:47:37.028Z,0.00
2018-10-05T02:48:36.896Z,0.00
2018-10-05T02:49:36.770Z,0.00
2018-10-05T02:50:36.641Z,0.00
2018-10-05T02:51:36.514Z,0.00
2018-10-05T02:52:36.387Z,0.00
2018-10-05T02:53:36.260Z,0.00
2018-10-05T02:54:36.133Z,0.00
2018-10-05T02:55:36.015Z,0.00
2018-10-05T02:56:35.880Z,0.00
2018-10-05T02:57:35.754Z,0.00
2018-10-05T02:58:35.625Z,0.00
2018-10-05T02:59:35.504Z,0.00
2018-10-05T03:00:35.380Z,0.00
2018-10-05T03:01:35.245Z,0.00
2018-10-05T03:02:35.117Z,0.00
2018-10-05T03:03:34.994Z,0.00
2018-10-05T03:04:34.871Z,0.00
2018-10-05T03:05:34.743Z,0.00
2018-10-05T03:06:34.616Z,0.00
2018-10-05T03:07:34.483Z,0.00
2018-10-05T03:08:34.356Z,0.00
2018-10-05T03:09:34.230Z,0.00
2018-10-05T03:10:34.101Z,0.00
2018-10-05T03:11:33.975Z,0.00
2018-10-05T03:12:33.850Z,0.00
2018-10-05T03:13:33.720Z,0.00
2018-10-05T03:14:33.602Z,0.00
2018-10-05T03:15:33.468Z,0.00
2018-10-05T03:16:33.341Z,0.00
2018-10-05T03:17:33.215Z,0.00
2018-10-05T03:18:33.087Z,0.00
2018-10-05T03:19:32.961Z,0.00
2018-10-05T03:20:32.834Z,0.00
2018-10-05T03:21:32.707Z,0.00
2018-10-05T03:22:32.581Z,0.00
2018-10-05T03:23:32.454Z,0.00
2018-10-05T03:24:32.326Z,0.00
2018-10-05T03:25:32.199Z,0.00
2018-10-05T03:26:32.072Z,0.00
2018-10-05T03:27:31.947Z,0.00
2018-10-05T03:28:31.825Z,0.00
2018-10-05T03:29:31.691Z,0.00
2018-10-05T03:30:31.565Z,0.00
2018-10-05T03:31:31.437Z,0.00
2018-10-05T03:32:31.308Z,0.00
2018-10-05T03:33:31.181Z,0.00
2018-10-05T03:34:31.054Z,0.00
2018-10-05T03:35:30.931Z,0.00
2018-10-05T03:36:30.801Z,0.00
2018-10-05T03:37:30.673Z,0.00
2018-10-05T03:38:30.546Z,0.00
2018-10-05T03:39:30.421Z,0.00
2018-10-05T03:40:30.295Z,0.00
2018-10-05T03:41:30.167Z,0.00
2018-10-05T03:42:30.038Z,0.00
2018-10-05T03:43:29.921Z,0.00
2018-10-05T03:44:29.786Z,0.00
2018-10-05T03:45:29.664Z,0.00
2018-10-05T03:46:29.535Z,0.00
2018-10-05T03:47:29.406Z,0.00
2018-10-05T03:48:29.279Z,0.00
2018-10-05T03:49:29.151Z,0.00
2018-10-05T03:50:29.025Z,0.00
2018-10-05T03:51:28.897Z,0.00
2018-10-05T03:52:28.772Z,0.00
2018-10-05T03:53:28.644Z,0.00
2018-10-05T03:54:28.516Z,0.00
2018-10-05T03:55:28.397Z,0.00
2018-10-05T03:56:28.272Z,0.00
2018-10-05T03:57:28.135Z,0.00
2018-10-05T03:58:28.008Z,0.00
2018-10-05T03:59:27.889Z,0.00
2018-10-05T04:00:27.755Z,0.00
2018-10-05T04:01:27.628Z,0.00
2018-10-05T04:02:27.500Z,0.00
2018-10-05T04:03:27.374Z,0.00
2018-10-05T04:04:27.249Z,0.00
2018-10-05T04:05:27.119Z,0.00
2018-10-05T04:06:26.997Z,0.00
2018-10-05T04:07:26.868Z,0.00
2018-10-05T04:08:26.741Z,0.00
2018-10-05T04:09:26.612Z,0.00
2018-10-05T04:10:26.495Z,0.00
2018-10-05T04:11:26.370Z,0.00
2018-10-05T04:12:26.232Z,0.00
2018-10-05T04:13:26.103Z,0.00
2018-10-05T04:14:25.978Z,0.00
2018-10-05T04:15:25.850Z,0.00
2018-10-05T04:16:25.725Z,0.00
2018-10-05T04:17:25.597Z,0.00
2018-10-05T04:18:25.471Z,0.00
2018-10-05T04:19:25.344Z,0.00
2018-10-05T04:20:25.218Z,0.00
2018-10-05T04:21:25.090Z,0.00
2018-10-05T04:22:24.965Z,0.00
2018-10-05T04:23:24.854Z,0.00
2018-10-05T04:24:24.716Z,0.00
2018-10-05T04:25:24.588Z,0.00
2018-10-05T04:26:24.455Z,0.00
2018-10-05T04:27:24.419Z,0.00
2018-10-05T04:28:24.203Z,0.00
2018-10-05T04:29:24.075Z,0.00
2018-10-05T04:30:23.953Z,0.00
2018-10-05T04:31:23.823Z,0.00
2018-10-05T04:32:23.699Z,0.00
2018-10-05T04:33:23.589Z,0.00
2018-10-05T04:34:23.439Z,0.00
2018-10-05T04:35:23.384Z,0.00
2018-10-05T04:36:23.187Z,0.00
2018-10-05T04:37:23.056Z,0.00
2018-10-05T04:38:22.931Z,0.00
2018-10-05T04:39:22.836Z,0.00
2018-10-05T04:40:22.679Z,0.00
2018-10-05T04:41:22.634Z,0.00
2018-10-05T04:42:22.430Z,0.00
2018-10-05T04:43:22.294Z,0.00
2018-10-05T04:44:22.170Z,0.00
2018-10-05T04:45:22.040Z,0.00
2018-10-05T04:46:21.918Z,0.00
2018-10-05T04:47:21.789Z,0.00
2018-10-05T04:48:21.659Z,0.00
2018-10-05T04:49:21.575Z,0.00
2018-10-05T04:50:21.408Z,0.00
2018-10-05T04:51:21.279Z,0.00
2018-10-05T04:52:21.155Z,0.00
2018-10-05T04:53:21.024Z,0.00
2018-10-05T04:54:20.896Z,0.00
2018-10-05T04:55:20.772Z,0.00
2018-10-05T04:56:20.642Z,0.00
2018-10-05T04:57:20.516Z,0.00
2018-10-05T04:58:20.389Z,0.00
2018-10-05T04:59:20.266Z,0.00
2018-10-05T05:00:20.135Z,0.00
2018-10-05T05:01:20.010Z,4.00
2018-10-05T05:02:19.879Z,4.00
2018-10-05T05:03:19.790Z,0.00
2018-10-05T05:04:19.628Z,4.00
2018-10-05T05:05:19.499Z,0.00
2018-10-05T05:06:19.375Z,4.00
2018-10-05T05:07:19.244Z,4.00
2018-10-05T05:08:19.118Z,8.00
2018-10-05T05:09:18.990Z,8.00
2018-10-05T05:10:18.862Z,8.00
2018-10-05T05:11:18.737Z,8.00
2018-10-05T05:12:18.707Z,12.00
2018-10-05T05:13:18.483Z,12.00
2018-10-05T05:14:18.355Z,16.00
2018-10-05T05:15:18.226Z,16.00
2018-10-05T05:16:18.099Z,20.00
2018-10-05T05:17:17.971Z,24.00
2018-10-05T05:18:17.844Z,28.00
2018-10-05T05:19:17.715Z,32.00
2018-10-05T05:20:17.590Z,36.00
2018-10-05T05:21:17.461Z,40.00
2018-10-05T05:22:17.333Z,44.00
2018-10-05T05:23:17.206Z,52.00
2018-10-05T05:24:17.082Z,60.00
2018-10-05T05:25:16.955Z,64.00
2018-10-05T05:26:16.825Z,72.00
2018-10-05T05:27:16.705Z,76.00
2018-10-05T05:28:16.572Z,80.00
2018-10-05T05:29:16.443Z,92.00
2018-10-05T05:30:16.315Z,96.00
2018-10-05T05:31:16.192Z,104.00
2018-10-05T05:32:16.062Z,108.00
2018-10-05T05:33:15.935Z,120.00
2018-10-05T05:34:15.807Z,124.00
2018-10-05T05:35:15.681Z,132.00
2018-10-05T05:36:15.554Z,140.00
2018-10-05T05:37:15.426Z,148.00
2018-10-05T05:38:15.298Z,152.00
2018-10-05T05:39:15.172Z,160.00
2018-10-05T05:40:15.063Z,168.00
2018-10-05T05:41:14.919Z,176.00
2018-10-05T05:42:14.793Z,184.00
2018-10-05T05:43:14.663Z,188.00
2018-10-05T05:44:14.535Z,196.00
2018-10-05T05:45:14.408Z,200.00
2018-10-05T05:46:14.284Z,208.00
2018-10-05T05:47:14.152Z,212.00
2018-10-05T05:48:14.027Z,220.00
2018-10-05T05:49:13.896Z,224.00
2018-10-05T05:50:13.770Z,232.00
2018-10-05T05:51:13.643Z,236.00
2018-10-05T05:52:13.517Z,244.00
2018-10-05T05:53:13.390Z,248.00
2018-10-05T05:54:13.283Z,256.00
2018-10-05T05:55:13.135Z,260.00
2018-10-05T05:56:13.008Z,260.00
2018-10-05T05:57:12.878Z,268.00
2018-10-05T05:58:12.752Z,272.00
2018-10-05T05:59:12.624Z,276.00
2018-10-05T06:00:12.506Z,280.00
2018-10-05T06:01:12.426Z,288.00
2018-10-05T06:02:12.244Z,292.00
2018-10-05T06:03:12.120Z,296.00
2018-10-05T06:04:11.989Z,300.00
2018-10-05T06:05:11.863Z,304.00
2018-10-05T06:06:11.734Z,308.00
2018-10-05T06:07:11.606Z,312.00
2018-10-05T06:08:11.518Z,316.00
2018-10-05T06:09:11.353Z,316.00
2018-10-05T06:10:11.226Z,324.00
2018-10-05T06:11:11.101Z,324.00
2018-10-05T06:12:10.972Z,328.00
2018-10-05T06:13:10.844Z,328.00
2018-10-05T06:14:10.714Z,336.00
2018-10-05T06:15:10.595Z,336.00
2018-10-05T06:16:10.559Z,344.00
2018-10-05T06:17:10.334Z,344.00
2018-10-05T06:18:10.207Z,344.00
2018-10-05T06:19:10.080Z,352.00
2018-10-05T06:20:09.953Z,352.00
2018-10-05T06:21:09.826Z,356.00
2018-10-05T06:22:09.854Z,360.00
2018-10-05T06:23:09.571Z,360.00
2018-10-05T06:24:09.448Z,364.00
2018-10-05T06:25:09.316Z,364.00
2018-10-05T06:26:09.192Z,368.00
2018-10-05T06:27:09.117Z,372.00
2018-10-05T06:28:08.940Z,372.00
2018-10-05T06:29:08.809Z,376.00
2018-10-05T06:30:08.680Z,376.00
2018-10-05T06:31:08.564Z,380.00
2018-10-05T06:32:08.426Z,384.00
2018-10-05T06:33:08.319Z,384.00
2018-10-05T06:34:08.172Z,388.00
2018-10-05T06:35:08.045Z,388.00
2018-10-05T06:36:07.924Z,392.00
2018-10-05T06:37:07.792Z,392.00
2018-10-05T06:38:07.679Z,400.00
2018-10-05T06:39:07.599Z,400.00
2018-10-05T06:40:07.407Z,408.00
2018-10-05T06:41:07.280Z,412.00
2018-10-05T06:42:07.191Z,424.00
2018-10-05T06:43:07.028Z,440.00
2018-10-05T06:44:06.899Z,476.00
2018-10-05T06:45:06.773Z,512.00
2018-10-05T06:46:06.644Z,572.00
2018-10-05T06:47:06.518Z,664.00
2018-10-05T06:48:06.390Z,796.00
2018-10-05T06:49:06.266Z,936.00
2018-10-05T06:50:06.137Z,1048.00
2018-10-05T06:51:06.009Z,1116.00
2018-10-05T06:52:05.886Z,1124.00
2018-10-05T06:53:05.769Z,1132.00
2018-10-05T06:54:05.630Z,1136.00
2018-10-05T06:55:05.506Z,1148.00
2018-10-05T06:56:05.378Z,1152.00
2018-10-05T06:57:05.252Z,1160.00
2018-10-05T06:58:05.128Z,1160.00
2018-10-05T06:59:05.003Z,1168.00
2018-10-05T07:00:04.876Z,1180.00
2018-10-05T07:01:04.749Z,1184.00
2018-10-05T07:02:04.622Z,1192.00
2018-10-05T07:03:04.498Z,1204.00
2018-10-05T07:04:04.373Z,1204.00
2018-10-05T07:05:04.246Z,1216.00
2018-10-05T07:06:04.122Z,1220.00
2018-10-05T07:07:03.994Z,1228.00
2018-10-05T07:08:03.944Z,1236.00
2018-10-05T07:09:03.747Z,1240.00
2018-10-05T07:10:03.619Z,1244.00
2018-10-05T07:11:03.500Z,1248.00
2018-10-05T07:12:03.372Z,1260.00
2018-10-05T07:13:03.245Z,1264.00
2018-10-05T07:14:03.122Z,1276.00
2018-10-05T07:15:02.996Z,1276.00
2018-10-05T07:16:02.873Z,1284.00
2018-10-05T07:17:02.804Z,1292.00
2018-10-05T07:18:02.624Z,1300.00
2018-10-05T07:19:02.503Z,1308.00
2018-10-05T07:20:02.386Z,1312.00
2018-10-05T07:21:02.253Z,1320.00
2018-10-05T07:22:02.148Z,1328.00
2018-10-05T07:23:02.008Z,1328.00
2018-10-05T07:24:01.879Z,1336.00
2018-10-05T07:25:01.756Z,1340.00
2018-10-05T07:26:01.631Z,1348.00
2018-10-05T07:27:01.510Z,1352.00
2018-10-05T07:28:01.387Z,1360.00
2018-10-05T07:29:01.261Z,1368.00
2018-10-05T07:30:01.137Z,1368.00
2018-10-05T07:31:01.013Z,1376.00
2018-10-05T07:32:00.896Z,1380.00
2018-10-05T07:33:00.768Z,1384.00
2018-10-05T07:34:00.644Z,1392.00
2018-10-05T07:35:00.528Z,1400.00
2018-10-05T07:36:00.403Z,1400.00
2018-10-05T07:37:00.330Z,1408.00
2018-10-05T07:38:00.156Z,1412.00
2018-10-05T07:39:00.031Z,1416.00
2018-10-05T07:39:59.910Z,1424.00
2018-10-05T07:40:59.784Z,1428.00
2018-10-05T07:41:59.663Z,1432.00
2018-10-05T07:42:59.561Z,1432.00
2018-10-05T07:43:59.420Z,1440.00
2018-10-05T07:44:59.301Z,1444.00
2018-10-05T07:45:59.178Z,1448.00
2018-10-05T07:46:59.052Z,1452.00
2018-10-05T07:47:58.929Z,1456.00
2018-10-05T07:48:58.807Z,1464.00
2018-10-05T07:49:58.685Z,1472.00
2018-10-05T07:50:58.561Z,1476.00
2018-10-05T07:51:58.528Z,1480.00
2018-10-05T07:52:58.316Z,1488.00
2018-10-05T07:53:58.195Z,1492.00
2018-10-05T07:54:58.072Z,1496.00
2018-10-05T07:55:57.950Z,1500.00
2018-10-05T07:56:57.828Z,1508.00
2018-10-05T07:57:57.770Z,1516.00
2018-10-05T07:58:57.583Z,1520.00
2018-10-05T07:59:57.465Z,1532.00
2018-10-05T08:00:57.341Z,1536.00
2018-10-05T08:01:57.220Z,1540.00
2018-10-05T08:02:57.099Z,1548.00
2018-10-05T08:03:56.972Z,1560.00
2018-10-05T08:04:56.852Z,1568.00
2018-10-05T08:05:56.731Z,1572.00
2018-10-05T08:06:56.607Z,1572.00
2018-10-05T08:07:56.487Z,1580.00
2018-10-05T08:08:56.362Z,1584.00
2018-10-05T08:09:56.240Z,1592.00
2018-10-05T08:10:56.120Z,1600.00
2018-10-05T08:11:55.997Z,1604.00
2018-10-05T08:12:55.882Z,1612.00
2018-10-05T08:13:55.753Z,1624.00
2018-10-05T08:14:55.632Z,1628.00
2018-10-05T08:15:55.510Z,1636.00
2018-10-05T08:16:55.387Z,1640.00
2018-10-05T08:17:55.266Z,1644.00
2018-10-05T08:18:55.145Z,1648.00
2018-10-05T08:19:55.026Z,1656.00
2018-10-05T08:20:54.916Z,1656.00
2018-10-05T08:21:54.779Z,1660.00
2018-10-05T08:22:54.659Z,1668.00
2018-10-05T08:23:54.537Z,1672.00
2018-10-05T08:24:54.416Z,1680.00
2018-10-05T08:25:54.295Z,1680.00
2018-10-05T08:26:54.192Z,1684.00
2018-10-05T08:27:54.070Z,1684.00
2018-10-05T08:28:53.930Z,1688.00
2018-10-05T08:29:53.809Z,1696.00
2018-10-05T08:30:53.692Z,1700.00
2018-10-05T08:31:53.571Z,1704.00
2018-10-05T08:32:53.445Z,1716.00
2018-10-05T08:33:53.348Z,1716.00
2018-10-05T08:34:53.206Z,1716.00
2018-10-05T08:35:53.088Z,1720.00
2018-10-05T08:36:52.964Z,1724.00
2018-10-05T08:37:52.842Z,1728.00
2018-10-05T08:38:52.722Z,1736.00
2018-10-05T08:39:52.704Z,1744.00
2018-10-05T08:40:52.478Z,1748.00
2018-10-05T08:41:52.358Z,1756.00
2018-10-05T08:42:52.239Z,1764.00
2018-10-05T08:43:52.118Z,1772.00
2018-10-05T08:44:52.010Z,1780.00
2018-10-05T08:45:51.922Z,1788.00
2018-10-05T08:46:51.759Z,1796.00
2018-10-05T08:47:51.638Z,1800.00
2018-10-05T08:48:51.514Z,1812.00
2018-10-05T08:49:51.394Z,1820.00
2018-10-05T08:50:51.279Z,1832.00
2018-10-05T08:51:51.230Z,1844.00
2018-10-05T08:52:51.035Z,1852.00
2018-10-05T08:53:50.915Z,1860.00
2018-10-05T08:54:50.797Z,1872.00
2018-10-05T08:55:50.678Z,1880.00
2018-10-05T08:56:50.552Z,1892.00
2018-10-05T08:57:50.433Z,1900.00
2018-10-05T08:58:50.314Z,1908.00
2018-10-05T08:59:50.202Z,1916.00
2018-10-05T09:00:50.072Z,1928.00
2018-10-05T09:01:49.955Z,1940.00
2018-10-05T09:02:49.835Z,1948.00
2018-10-05T09:03:49.716Z,1956.00
2018-10-05T09:04:49.599Z,1968.00
2018-10-05T09:05:49.500Z,1972.00
2018-10-05T09:06:49.358Z,1980.00
2018-10-05T09:07:49.235Z,1988.00
2018-10-05T09:08:49.113Z,1992.00
2018-10-05T09:09:48.994Z,1996.00
2018-10-05T09:10:48.874Z,2004.00
2018-10-05T09:11:48.762Z,2012.00
2018-10-05T09:12:48.636Z,2012.00
2018-10-05T09:13:48.516Z,2016.00
2018-10-05T09:14:48.398Z,2020.00
2018-10-05T09:15:48.278Z,2024.00
2018-10-05T09:16:48.157Z,2028.00
2018-10-05T09:17:48.102Z,2032.00
2018-10-05T09:18:47.921Z,2040.00
2018-10-05T09:19:47.801Z,2044.00
2018-10-05T09:20:47.680Z,2048.00
2018-10-05T09:21:47.560Z,2048.00
2018-10-05T09:22:47.443Z,2052.00
2018-10-05T09:23:47.325Z,2056.00
2018-10-05T09:24:47.202Z,2064.00
2018-10-05T09:25:47.098Z,2068.00
2018-10-05T09:26:46.966Z,2072.00
2018-10-05T09:27:46.847Z,2080.00
2018-10-05T09:28:46.725Z,2084.00
2018-10-05T09:29:46.607Z,2092.00
2018-10-05T09:30:46.669Z,2100.00
2018-10-05T09:31:46.374Z,2108.00
2018-10-05T09:32:46.252Z,2112.00
2018-10-05T09:33:46.134Z,2128.00
2018-10-05T09:34:46.016Z,2136.00
2018-10-05T09:35:45.895Z,2144.00
2018-10-05T09:36:45.775Z,2156.00
2018-10-05T09:37:45.665Z,2168.00
2018-10-05T09:38:45.542Z,2176.00
2018-10-05T09:39:45.421Z,2192.00
2018-10-05T09:40:45.302Z,2200.00
2018-10-05T09:41:45.184Z,2212.00
2018-10-05T09:42:45.066Z,2224.00
2018-10-05T09:43:44.948Z,2232.00
2018-10-05T09:44:44.843Z,2244.00
2018-10-05T09:45:44.714Z,2252.00
2018-10-05T09:46:44.594Z,2256.00
2018-10-05T09:47:44.476Z,2260.00
2018-10-05T09:48:44.356Z,2268.00
2018-10-05T09:49:44.239Z,2276.00
2018-10-05T09:50:44.123Z,2280.00
2018-10-05T09:51:44.039Z,2280.00
2018-10-05T09:52:43.908Z,2292.00
2018-10-05T09:53:43.767Z,2296.00
2018-10-05T09:54:43.650Z,2296.00
2018-10-05T09:55:43.530Z,2300.00
2018-10-05T09:56:43.414Z,2304.00
2018-10-05T09:57:43.292Z,2304.00
2018-10-05T09:58:43.181Z,2304.00
2018-10-05T09:59:43.144Z,2312.00
2018-10-05T10:00:42.937Z,2308.00
2018-10-05T10:01:42.820Z,2312.00
2018-10-05T10:02:42.701Z,2312.00
2018-10-05T10:03:42.584Z,2316.00
2018-10-05T10:04:42.466Z,2312.00
2018-10-05T10:05:42.350Z,2312.00
2018-10-05T10:06:42.237Z,2312.00
2018-10-05T10:07:42.111Z,2320.00
2018-10-05T10:08:41.992Z,2320.00
2018-10-05T10:09:41.874Z,2324.00
2018-10-05T10:10:41.758Z,2324.00
2018-10-05T10:11:41.643Z,2328.00
2018-10-05T10:12:41.522Z,2324.00
2018-10-05T10:13:41.413Z,2324.00
2018-10-05T10:14:41.296Z,2332.00
2018-10-05T10:15:41.168Z,2336.00
2018-10-05T10:16:41.050Z,2332.00
2018-10-05T10:17:40.938Z,2336.00
2018-10-05T10:18:40.819Z,2336.00
2018-10-05T10:19:40.698Z,2328.00
2018-10-05T10:20:40.584Z,2312.00
2018-10-05T10:21:40.531Z,2316.00
2018-10-05T10:22:40.373Z,2320.00
2018-10-05T10:23:40.229Z,2280.00
2018-10-05T10:24:40.112Z,2268.00
2018-10-05T10:25:39.993Z,2264.00
2018-10-05T10:26:39.876Z,2260.00
2018-10-05T10:27:39.820Z,2256.00
2018-10-05T10:28:39.697Z,2244.00
2018-10-05T10:29:39.524Z,2272.00
2018-10-05T10:30:39.408Z,2276.00
2018-10-05T10:31:39.295Z,2280.00
2018-10-05T10:32:39.175Z,2288.00
2018-10-05T10:33:39.087Z,2280.00
2018-10-05T10:34:38.950Z,2272.00
2018-10-05T10:35:38.823Z,2232.00
2018-10-05T10:36:38.765Z,2204.00
2018-10-05T10:37:38.587Z,2164.00
2018-10-05T10:38:38.471Z,2152.00
2018-10-05T10:39:38.354Z,2112.00
2018-10-05T10:40:38.235Z,2088.00
2018-10-05T10:41:38.130Z,2096.00
2018-10-05T10:42:38.073Z,2100.00
2018-10-05T10:43:37.884Z,2088.00
2018-10-05T10:44:37.765Z,2060.00
2018-10-05T10:45:37.651Z,2020.00
2018-10-05T10:46:37.533Z,1988.00
2018-10-05T10:47:37.417Z,2044.00
2018-10-05T10:48:37.303Z,2068.00
2018-10-05T10:49:37.179Z,2108.00
2018-10-05T10:50:37.063Z,2112.00
2018-10-05T10:51:36.949Z,2108.00
2018-10-05T10:52:36.826Z,2060.00
2018-10-05T10:53:36.712Z,2004.00
2018-10-05T10:54:36.592Z,1972.00
2018-10-05T10:55:36.478Z,1948.00
2018-10-05T10:56:36.358Z,1932.00
2018-10-05T10:57:36.241Z,1920.00
2018-10-05T10:58:36.123Z,1904.00
2018-10-05T10:59:36.006Z,1896.00
2018-10-05T11:00:35.911Z,1888.00
2018-10-05T11:01:35.772Z,1900.00
2018-10-05T11:02:35.653Z,1896.00
2018-10-05T11:03:35.537Z,1884.00
2018-10-05T11:04:35.474Z,1884.00
2018-10-05T11:05:35.299Z,1840.00
2018-10-05T11:06:35.183Z,1828.00
2018-10-05T11:07:35.078Z,1804.00
2018-10-05T11:08:34.945Z,1804.00
2018-10-05T11:09:34.827Z,1816.00
2018-10-05T11:10:34.709Z,1760.00
2018-10-05T11:11:34.592Z,1764.00
2018-10-05T11:12:34.474Z,1740.00
2018-10-05T11:13:34.356Z,1728.00
2018-10-05T11:14:34.237Z,1712.00
2018-10-05T11:15:34.124Z,1704.00
2018-10-05T11:16:34.001Z,1704.00
2018-10-05T11:17:33.885Z,1700.00
2018-10-05T11:18:33.765Z,1704.00
2018-10-05T11:19:33.654Z,1708.00
2018-10-05T11:20:33.527Z,1716.00
2018-10-05T11:21:33.411Z,1724.00
2018-10-05T11:22:33.293Z,1728.00
2018-10-05T11:23:33.174Z,1732.00
2018-10-05T11:24:33.055Z,1732.00
2018-10-05T11:25:32.938Z,1728.00
2018-10-05T11:26:32.819Z,1732.00
2018-10-05T11:27:32.699Z,1736.00
2018-10-05T11:28:32.579Z,1748.00
2018-10-05T11:29:32.471Z,1752.00
2018-10-05T11:30:32.348Z,1768.00
2018-10-05T11:31:32.229Z,1760.00
2018-10-05T11:32:32.110Z,1772.00
2018-10-05T11:33:31.992Z,1776.00
2018-10-05T11:34:31.871Z,1776.00
2018-10-05T11:35:31.753Z,1788.00
2018-10-05T11:36:31.632Z,1792.00
2018-10-05T11:37:31.516Z,1800.00
2018-10-05T11:38:31.397Z,1800.00
2018-10-05T11:39:31.284Z,1796.00
2018-10-05T11:40:31.158Z,1800.00
2018-10-05T11:41:31.041Z,1808.00
2018-10-05T11:42:30.923Z,1808.00
2018-10-05T11:43:30.805Z,1816.00
2018-10-05T11:44:30.684Z,1820.00
2018-10-05T11:45:30.565Z,1808.00
2018-10-05T11:46:30.529Z,1824.00
2018-10-05T11:47:30.331Z,1820.00
2018-10-05T11:48:30.211Z,1832.00
2018-10-05T11:49:30.094Z,1828.00
2018-10-05T11:50:29.977Z,1836.00
2018-10-05T11:51:29.854Z,1844.00
2018-10-05T11:52:29.806Z,1844.00
2018-10-05T11:53:29.616Z,1844.00
2018-10-05T11:54:29.501Z,1856.00
2018-10-05T11:55:29.380Z,1856.00
2018-10-05T11:56:29.263Z,1872.00
2018-10-05T11:57:29.144Z,1880.00
2018-10-05T11:58:29.022Z,1892.00
2018-10-05T11:59:28.906Z,1888.00
2018-10-05T12:00:28.786Z,1884.00
2018-10-05T12:01:28.667Z,1908.00
2018-10-05T12:02:28.570Z,1912.00
2018-10-05T12:03:28.430Z,1944.00
2018-10-05T12:04:28.312Z,1948.00
2018-10-05T12:05:28.193Z,1948.00
2018-10-05T12:06:28.074Z,1952.00
2018-10-05T12:07:27.956Z,1948.00
2018-10-05T12:08:27.839Z,1932.00
2018-10-05T12:09:27.719Z,1920.00
2018-10-05T12:10:27.603Z,1904.00
2018-10-05T12:11:27.481Z,1908.00
2018-10-05T12:12:27.363Z,1896.00
2018-10-05T12:13:27.244Z,1884.00
2018-10-05T12:14:27.129Z,1880.00
2018-10-05T12:15:27.009Z,1880.00
2018-10-05T12:16:26.889Z,1880.00
2018-10-05T12:17:26.894Z,1872.00
2018-10-05T12:18:26.655Z,1864.00
2018-10-05T12:19:26.535Z,1852.00
2018-10-05T12:20:26.414Z,1840.00
2018-10-05T12:21:26.307Z,1832.00
2018-10-05T12:22:26.178Z,1824.00
2018-10-05T12:23:26.064Z,1824.00
2018-10-05T12:24:25.950Z,1812.00
2018-10-05T12:25:25.833Z,1812.00
2018-10-05T12:26:25.751Z,1820.00
2018-10-05T12:27:25.589Z,1828.00
2018-10-05T12:28:25.473Z,1844.00
2018-10-05T12:29:25.354Z,1844.00
2018-10-05T12:30:25.234Z,1860.00
2018-10-05T12:31:25.124Z,1864.00
2018-10-05T12:32:24.997Z,1880.00
2018-10-05T12:33:24.946Z,1876.00
2018-10-05T12:34:24.760Z,1872.00
2018-10-05T12:35:24.643Z,1864.00
2018-10-05T12:36:24.524Z,1868.00